Marco Polo — BR2031 — position and weather

sailwx.info

Track history (hours):
 
Tides and Currents Weather Stations Pressure Air Temp Water Temp Dewpoint Dewpoint Depression Visibility Wind Speed Wind Dir Waves Ship Positions

Marco Polo

Last reported at 2015-Jul-30 17:33 UTC. Time now 2015-Jul-30 18:12 UTC.
Position N 24°25' E 118°17'.

Length 32 m.

MMSI: 416000256.

Date/timePositionNaut miles runAvg speedWind from/ knotsBaromVisibWave heightAir tempDewpointWater temp
2015-Jul-30 17:33N 24°25' E 118°17'0 0.0
2015-Jul-30 16:33N 24°25' E 118°17'0 0.0
2015-Jul-30 15:33N 24°25' E 118°17'0 0.0
2015-Jul-30 14:33N 24°25' E 118°17'0 0.0
2015-Jul-30 10:32N 24°25' E 118°17'0 0.2
2015-Jul-30 09:33N 24°25' E 118°17'9 8.7
2015-Jul-30 08:32N 24°32' E 118°11'9 8.7
2015-Jul-30 07:31N 24°25' E 118°17'0 0.2
2015-Jul-30 06:33N 24°25' E 118°17'0 0.1
2015-Jul-30 03:04N 24°25' E 118°17'0 0.0
2015-Jul-30 02:32N 24°25' E 118°17'0 0.1
2015-Jul-30 01:33N 24°25' E 118°17'9 8.8
2015-Jul-30 00:33N 24°32' E 118°11'9 8.9
2015-Jul-29 23:33N 24°25' E 118°17'0 0.0
2015-Jul-29 22:33N 24°25' E 118°17'0 0.0
2015-Jul-29 21:33N 24°25' E 118°17'0 0.0
2015-Jul-29 20:30N 24°25' E 118°17'0 0.0
2015-Jul-29 03:15N 24°25' E 118°17'0 0.0
2015-Jul-29 02:33N 24°25' E 118°17'0 0.0
2015-Jul-29 01:33N 24°25' E 118°17'0 0.0
2015-Jul-29 00:31N 24°25' E 118°17'0 0.0
2015-Jul-28 23:33N 24°25' E 118°17'0 0.0
2015-Jul-28 22:33N 24°25' E 118°17'0 0.0
2015-Jul-28 21:33N 24°25' E 118°17'0 0.0
2015-Jul-28 20:33N 24°25' E 118°17'0 0.0
2015-Jul-28 19:33N 24°25' E 118°17'0 0.0
2015-Jul-28 18:28N 24°25' E 118°17'0 0.0
2015-Jul-28 17:33N 24°25' E 118°17'0 0.0
2015-Jul-28 16:33N 24°25' E 118°17'0 0.0
2015-Jul-28 15:32N 24°25' E 118°17'0 0.0
2015-Jul-28 14:33N 24°25' E 118°17'0 0.0
2015-Jul-28 10:33N 24°25' E 118°17'0 0.0
2015-Jul-28 09:33N 24°25' E 118°17'0 0.0
2015-Jul-28 08:15N 24°25' E 118°17'7 9.7
2015-Jul-28 07:32N 24°31' E 118°13'0 0.3
2015-Jul-28 06:33N 24°31' E 118°13'7 7.1
2015-Jul-28 05:33N 24°25' E 118°17'0 0.0
2015-Jul-28 04:33N 24°25' E 118°17'0 0.0
2015-Jul-28 03:33N 24°25' E 118°17'0 0.1
2015-Jul-28 02:33N 24°25' E 118°17'9 8.9
2015-Jul-28 01:33N 24°32' E 118°11'9 8.5
2015-Jul-28 00:31N 24°25' E 118°17'0 0.0
2015-Jul-27 23:32N 24°25' E 118°17'0 0.0
2015-Jul-27 22:33N 24°25' E 118°17'0 0.0
2015-Jul-27 21:32N 24°25' E 118°17'0 0.0
2015-Jul-27 20:33N 24°25' E 118°17'0 0.0
2015-Jul-27 19:33N 24°25' E 118°17'0 0.0
2015-Jul-27 18:34N 24°25' E 118°17'0 0.0
2015-Jul-27 17:33N 24°25' E 118°17'0 0.0
2015-Jul-27 16:33N 24°25' E 118°17'0 0.0
2015-Jul-27 15:33N 24°25' E 118°17'0 0.0
2015-Jul-27 14:31N 24°25' E 118°17'0 0.0
2015-Jul-27 10:33N 24°25' E 118°17'9 8.9
2015-Jul-27 09:33N 24°32' E 118°11'9 8.9
2015-Jul-27 08:32N 24°25' E 118°17'0 0.1
2015-Jul-27 07:26N 24°25' E 118°17'0 0.0
2015-Jul-27 06:25N 24°25' E 118°17'8 9.6
2015-Jul-27 05:33N 24°32' E 118°12'1 1.0
2015-Jul-27 04:33N 24°31' E 118°13'7 7.4
2015-Jul-27 03:33N 24°25' E 118°17'0 0.5
2015-Jul-27 02:33N 24°25' E 118°17'0 0.0
2015-Jul-27 01:33N 24°25' E 118°17'0 0.0
2015-Jul-27 00:33N 24°25' E 118°17'0 0.0
2015-Jul-26 23:33N 24°25' E 118°17'0 0.0
2015-Jul-26 22:30N 24°25' E 118°17'0 0.0
2015-Jul-26 21:32N 24°25' E 118°17'0 0.0
2015-Jul-26 20:32N 24°25' E 118°17'0 0.0
2015-Jul-26 19:33N 24°25' E 118°17'0 0.0
2015-Jul-26 18:33N 24°25' E 118°17'0 0.0
2015-Jul-26 17:32N 24°25' E 118°17'0 0.0
2015-Jul-26 16:34N 24°25' E 118°17'0 0.0
2015-Jul-26 15:33N 24°25' E 118°17'0 0.0
2015-Jul-26 14:31N 24°25' E 118°17'0 0.0
2015-Jul-26 10:31N 24°25' E 118°17'0 0.0
2015-Jul-26 09:32N 24°25' E 118°17'0 0.0
2015-Jul-26 08:33N 24°25' E 118°17'7 7.3
2015-Jul-26 07:32N 24°32' E 118°13'0 0.4
2015-Jul-26 06:33N 24°32' E 118°12'8 8.1
2015-Jul-26 05:32N 24°25' E 118°17'0 0.1
2015-Jul-26 04:32N 24°25' E 118°17'7 7.0
2015-Jul-26 03:33N 24°31' E 118°14'0 0.3
2015-Jul-26 02:33N 24°31' E 118°14'7 6.5
2015-Jul-26 01:32N 24°25' E 118°17'0 0.1
2015-Jul-26 00:30N 24°25' E 118°17'0 0.0
2015-Jul-25 23:33N 24°25' E 118°17'0 0.0
2015-Jul-25 22:33N 24°25' E 118°17'0 0.0
2015-Jul-25 21:33N 24°25' E 118°17'0 0.0
2015-Jul-25 20:32N 24°25' E 118°17'0 0.0
2015-Jul-25 19:30N 24°25' E 118°17'0 0.0
2015-Jul-25 18:28N 24°25' E 118°17'0 0.0
2015-Jul-25 15:32N 24°25' E 118°17'0 0.0
2015-Jul-25 14:27N 24°25' E 118°17'0 0.0
2015-Jul-25 10:33N 24°25' E 118°17'0 0.0
2015-Jul-25 09:33N 24°25' E 118°17'0 0.0
2015-Jul-25 08:33N 24°25' E 118°17'0 0.0
2015-Jul-25 07:31N 24°25' E 118°17'9 9.0
2015-Jul-25 06:33N 24°32' E 118°12'0 0.2
2015-Jul-25 05:33N 24°32' E 118°12'9 8.7
2015-Jul-25 04:33N 24°25' E 118°17'0 0.1
2015-Jul-25 03:33N 24°25' E 118°17'0 0.0
2015-Jul-25 02:32N 24°25' E 118°17'0 0.2
2015-Jul-25 01:33N 24°25' E 118°17'8 8.2
2015-Jul-25 00:33N 24°32' E 118°12'8 7.7
2015-Jul-24 23:27N 24°25' E 118°17'0 0.0
2015-Jul-24 22:28N 24°25' E 118°17'0 0.0
2015-Jul-24 21:26N 24°25' E 118°17'0 0.0
2015-Jul-24 20:30N 24°25' E 118°17'0 0.0
2015-Jul-24 19:33N 24°25' E 118°17'8 0.9
2015-Jul-24 10:32N 24°32' E 118°13'8 7.5
2015-Jul-24 09:30N 24°25' E 118°17'0 0.5
2015-Jul-24 08:33N 24°25' E 118°17'0 0.0
2015-Jul-24 07:14N 24°25' E 118°17'0 0.0
2015-Jul-24 06:31N 24°25' E 118°17'9 8.9
2015-Jul-24 05:32N 24°32' E 118°11'2 1.8
2015-Jul-24 04:33N 24°31' E 118°13'7 7.5
2015-Jul-24 03:33N 24°25' E 118°17'0 0.4
2015-Jul-24 02:25N 24°25' E 118°17'0 0.0
2015-Jul-24 01:33N 24°25' E 118°17'0 0.0
2015-Jul-24 00:32N 24°25' E 118°17'0 0.0
2015-Jul-23 23:33N 24°25' E 118°17'0 0.0
2015-Jul-23 22:32N 24°25' E 118°17'0 0.0
2015-Jul-23 21:32N 24°25' E 118°17'0 0.0
2015-Jul-23 20:33N 24°25' E 118°17'0 0.0
2015-Jul-23 19:33N 24°25' E 118°17'0 0.0
2015-Jul-23 18:33N 24°25' E 118°17'0 0.0
2015-Jul-23 17:33N 24°25' E 118°17'0 0.0
2015-Jul-23 16:32N 24°25' E 118°17'0 0.0
2015-Jul-23 15:29N 24°25' E 118°17'0 0.0
2015-Jul-23 14:33N 24°25' E 118°17'0 0.0
2015-Jul-23 10:33N 24°25' E 118°17'1 1.0
2015-Jul-23 09:33N 24°26' E 118°17'8 7.6
2015-Jul-23 08:32N 24°32' E 118°11'9 9.0
2015-Jul-23 07:33N 24°25' E 118°17'0 0.4
2015-Jul-23 06:30N 24°25' E 118°17'0 0.0
2015-Jul-23 02:33N 24°25' E 118°17'7 7.3
2015-Jul-23 01:33N 24°32' E 118°13'8 7.7
2015-Jul-23 00:32N 24°25' E 118°17'0 0.0
2015-Jul-22 23:33N 24°25' E 118°17'0 0.0
2015-Jul-22 22:33N 24°25' E 118°17'0 0.0
2015-Jul-22 21:33N 24°25' E 118°17'0 0.0
2015-Jul-22 20:33N 24°25' E 118°17'0 0.0
2015-Jul-22 19:33N 24°25' E 118°17'0 0.0
2015-Jul-22 18:30N 24°25' E 118°17'0 0.0
2015-Jul-22 17:32N 24°25' E 118°17'0 0.0
2015-Jul-22 16:33N 24°25' E 118°17'0 0.0
2015-Jul-22 15:33N 24°25' E 118°17'0 0.0
2015-Jul-22 14:33N 24°25' E 118°17'0 0.0
2015-Jul-22 10:33N 24°25' E 118°17'9 8.8
2015-Jul-22 09:33N 24°32' E 118°11'9 8.6
2015-Jul-22 08:30N 24°25' E 118°17'0 0.3
2015-Jul-22 07:31N 24°25' E 118°18'0 0.0
2015-Jul-22 04:33N 24°25' E 118°18'7 7.4
2015-Jul-22 03:33N 24°31' E 118°13'1 0.7
2015-Jul-22 02:34N 24°32' E 118°13'8 7.9
2015-Jul-22 01:33N 24°25' E 118°17'0 0.1
2015-Jul-22 00:33N 24°25' E 118°17'0 0.0
2015-Jul-21 10:27N 24°25' E 118°17'0 0.0
2015-Jul-21 09:32N 24°25' E 118°17'9 9.2
2015-Jul-21 08:33N 24°32' E 118°11'9 8.7
2015-Jul-21 07:32N 24°25' E 118°17'0 0.2
2015-Jul-21 06:23N 24°25' E 118°17'0 0.1
2015-Jul-21 05:33N 24°25' E 118°17'0 0.0
2015-Jul-21 04:29N 24°25' E 118°17'0 0.0
2015-Jul-21 03:32N 24°25' E 118°17'0 0.0
2015-Jul-21 02:33N 24°25' E 118°17'2 1.8
2015-Jul-21 01:31N 24°27' E 118°17'7 7.2
2015-Jul-21 00:33N 24°32' E 118°12'8 8.3
2015-Jul-20 23:32N 24°25' E 118°17'0 0.0
2015-Jul-20 22:18N 24°25' E 118°17'0 0.0
2015-Jul-20 21:33N 24°25' E 118°17'0 0.0
2015-Jul-20 20:31N 24°25' E 118°17'0 0.0
2015-Jul-20 19:28N 24°25' E 118°17'0 0.0
2015-Jul-20 18:29N 24°25' E 118°17'  
Track history (hours):
 
Tides and Currents Weather Stations Pressure Air Temp Water Temp Dewpoint Dewpoint Depression Visibility Wind Speed Wind Dir Waves Ship Positions

Marco Polo

Last reported at 2015-Jul-30 17:33 UTC. Time now 2015-Jul-30 18:12 UTC.
Position N 24°25' E 118°17'.

Length 32 m.

MMSI: 416000256.

Date/timePositionNaut miles runAvg speedWind from/ knotsBaromVisibWave heightAir tempDewpointWater temp
2015-Jul-30 17:33N 24°25' E 118°17'0 0.0
2015-Jul-30 16:33N 24°25' E 118°17'0 0.0
2015-Jul-30 15:33N 24°25' E 118°17'0 0.0
2015-Jul-30 14:33N 24°25' E 118°17'0 0.0
2015-Jul-30 10:32N 24°25' E 118°17'0 0.2
2015-Jul-30 09:33N 24°25' E 118°17'9 8.7
2015-Jul-30 08:32N 24°32' E 118°11'9 8.7
2015-Jul-30 07:31N 24°25' E 118°17'0 0.2
2015-Jul-30 06:33N 24°25' E 118°17'0 0.1
2015-Jul-30 03:04N 24°25' E 118°17'0 0.0
2015-Jul-30 02:32N 24°25' E 118°17'0 0.1
2015-Jul-30 01:33N 24°25' E 118°17'9 8.8
2015-Jul-30 00:33N 24°32' E 118°11'9 8.9
2015-Jul-29 23:33N 24°25' E 118°17'0 0.0
2015-Jul-29 22:33N 24°25' E 118°17'0 0.0
2015-Jul-29 21:33N 24°25' E 118°17'0 0.0
2015-Jul-29 20:30N 24°25' E 118°17'0 0.0
2015-Jul-29 03:15N 24°25' E 118°17'0 0.0
2015-Jul-29 02:33N 24°25' E 118°17'0 0.0
2015-Jul-29 01:33N 24°25' E 118°17'0 0.0
2015-Jul-29 00:31N 24°25' E 118°17'0 0.0
2015-Jul-28 23:33N 24°25' E 118°17'0 0.0
2015-Jul-28 22:33N 24°25' E 118°17'0 0.0
2015-Jul-28 21:33N 24°25' E 118°17'0 0.0
2015-Jul-28 20:33N 24°25' E 118°17'0 0.0
2015-Jul-28 19:33N 24°25' E 118°17'0 0.0
2015-Jul-28 18:28N 24°25' E 118°17'0 0.0
2015-Jul-28 17:33N 24°25' E 118°17'0 0.0
2015-Jul-28 16:33N 24°25' E 118°17'0 0.0
2015-Jul-28 15:32N 24°25' E 118°17'0 0.0
2015-Jul-28 14:33N 24°25' E 118°17'0 0.0
2015-Jul-28 10:33N 24°25' E 118°17'0 0.0
2015-Jul-28 09:33N 24°25' E 118°17'0 0.0
2015-Jul-28 08:15N 24°25' E 118°17'7 9.7
2015-Jul-28 07:32N 24°31' E 118°13'0 0.3
2015-Jul-28 06:33N 24°31' E 118°13'7 7.1
2015-Jul-28 05:33N 24°25' E 118°17'0 0.0
2015-Jul-28 04:33N 24°25' E 118°17'0 0.0
2015-Jul-28 03:33N 24°25' E 118°17'0 0.1
2015-Jul-28 02:33N 24°25' E 118°17'9 8.9
2015-Jul-28 01:33N 24°32' E 118°11'9 8.5
2015-Jul-28 00:31N 24°25' E 118°17'0 0.0
2015-Jul-27 23:32N 24°25' E 118°17'0 0.0
2015-Jul-27 22:33N 24°25' E 118°17'0 0.0
2015-Jul-27 21:32N 24°25' E 118°17'0 0.0
2015-Jul-27 20:33N 24°25' E 118°17'0 0.0
2015-Jul-27 19:33N 24°25' E 118°17'0 0.0
2015-Jul-27 18:34N 24°25' E 118°17'0 0.0
2015-Jul-27 17:33N 24°25' E 118°17'0 0.0
2015-Jul-27 16:33N 24°25' E 118°17'0 0.0
2015-Jul-27 15:33N 24°25' E 118°17'0 0.0
2015-Jul-27 14:31N 24°25' E 118°17'0 0.0
2015-Jul-27 10:33N 24°25' E 118°17'9 8.9
2015-Jul-27 09:33N 24°32' E 118°11'9 8.9
2015-Jul-27 08:32N 24°25' E 118°17'0 0.1
2015-Jul-27 07:26N 24°25' E 118°17'0 0.0
2015-Jul-27 06:25N 24°25' E 118°17'8 9.6
2015-Jul-27 05:33N 24°32' E 118°12'1 1.0
2015-Jul-27 04:33N 24°31' E 118°13'7 7.4
2015-Jul-27 03:33N 24°25' E 118°17'0 0.5
2015-Jul-27 02:33N 24°25' E 118°17'0 0.0
2015-Jul-27 01:33N 24°25' E 118°17'0 0.0
2015-Jul-27 00:33N 24°25' E 118°17'0 0.0
2015-Jul-26 23:33N 24°25' E 118°17'0 0.0
2015-Jul-26 22:30N 24°25' E 118°17'0 0.0
2015-Jul-26 21:32N 24°25' E 118°17'0 0.0
2015-Jul-26 20:32N 24°25' E 118°17'0 0.0
2015-Jul-26 19:33N 24°25' E 118°17'0 0.0
2015-Jul-26 18:33N 24°25' E 118°17'0 0.0
2015-Jul-26 17:32N 24°25' E 118°17'0 0.0
2015-Jul-26 16:34N 24°25' E 118°17'0 0.0
2015-Jul-26 15:33N 24°25' E 118°17'0 0.0
2015-Jul-26 14:31N 24°25' E 118°17'0 0.0
2015-Jul-26 10:31N 24°25' E 118°17'0 0.0
2015-Jul-26 09:32N 24°25' E 118°17'0 0.0
2015-Jul-26 08:33N 24°25' E 118°17'7 7.3
2015-Jul-26 07:32N 24°32' E 118°13'0 0.4
2015-Jul-26 06:33N 24°32' E 118°12'8 8.1
2015-Jul-26 05:32N 24°25' E 118°17'0 0.1
2015-Jul-26 04:32N 24°25' E 118°17'7 7.0
2015-Jul-26 03:33N 24°31' E 118°14'0 0.3
2015-Jul-26 02:33N 24°31' E 118°14'7 6.5
2015-Jul-26 01:32N 24°25' E 118°17'0 0.1
2015-Jul-26 00:30N 24°25' E 118°17'0 0.0
2015-Jul-25 23:33N 24°25' E 118°17'0 0.0
2015-Jul-25 22:33N 24°25' E 118°17'0 0.0
2015-Jul-25 21:33N 24°25' E 118°17'0 0.0
2015-Jul-25 20:32N 24°25' E 118°17'0 0.0
2015-Jul-25 19:30N 24°25' E 118°17'0 0.0
2015-Jul-25 18:28N 24°25' E 118°17'0 0.0
2015-Jul-25 15:32N 24°25' E 118°17'0 0.0
2015-Jul-25 14:27N 24°25' E 118°17'0 0.0
2015-Jul-25 10:33N 24°25' E 118°17'0 0.0
2015-Jul-25 09:33N 24°25' E 118°17'0 0.0
2015-Jul-25 08:33N 24°25' E 118°17'0 0.0
2015-Jul-25 07:31N 24°25' E 118°17'9 9.0
2015-Jul-25 06:33N 24°32' E 118°12'0 0.2
2015-Jul-25 05:33N 24°32' E 118°12'9 8.7
2015-Jul-25 04:33N 24°25' E 118°17'0 0.1
2015-Jul-25 03:33N 24°25' E 118°17'0 0.0
2015-Jul-25 02:32N 24°25' E 118°17'0 0.2
2015-Jul-25 01:33N 24°25' E 118°17'8 8.2
2015-Jul-25 00:33N 24°32' E 118°12'8 7.7
2015-Jul-24 23:27N 24°25' E 118°17'0 0.0
2015-Jul-24 22:28N 24°25' E 118°17'0 0.0
2015-Jul-24 21:26N 24°25' E 118°17'0 0.0
2015-Jul-24 20:30N 24°25' E 118°17'0 0.0
2015-Jul-24 19:33N 24°25' E 118°17'8 0.9
2015-Jul-24 10:32N 24°32' E 118°13'8 7.5
2015-Jul-24 09:30N 24°25' E 118°17'0 0.5
2015-Jul-24 08:33N 24°25' E 118°17'0 0.0
2015-Jul-24 07:14N 24°25' E 118°17'0 0.0
2015-Jul-24 06:31N 24°25' E 118°17'9 8.9
2015-Jul-24 05:32N 24°32' E 118°11'2 1.8
2015-Jul-24 04:33N 24°31' E 118°13'7 7.5
2015-Jul-24 03:33N 24°25' E 118°17'0 0.4
2015-Jul-24 02:25N 24°25' E 118°17'0 0.0
2015-Jul-24 01:33N 24°25' E 118°17'0 0.0
2015-Jul-24 00:32N 24°25' E 118°17'0 0.0
2015-Jul-23 23:33N 24°25' E 118°17'0 0.0
2015-Jul-23 22:32N 24°25' E 118°17'0 0.0
2015-Jul-23 21:32N 24°25' E 118°17'0 0.0
2015-Jul-23 20:33N 24°25' E 118°17'0 0.0
2015-Jul-23 19:33N 24°25' E 118°17'0 0.0
2015-Jul-23 18:33N 24°25' E 118°17'0 0.0
2015-Jul-23 17:33N 24°25' E 118°17'0 0.0
2015-Jul-23 16:32N 24°25' E 118°17'0 0.0
2015-Jul-23 15:29N 24°25' E 118°17'0 0.0
2015-Jul-23 14:33N 24°25' E 118°17'0 0.0
2015-Jul-23 10:33N 24°25' E 118°17'1 1.0
2015-Jul-23 09:33N 24°26' E 118°17'8 7.6
2015-Jul-23 08:32N 24°32' E 118°11'9 9.0
2015-Jul-23 07:33N 24°25' E 118°17'0 0.4
2015-Jul-23 06:30N 24°25' E 118°17'0 0.0
2015-Jul-23 02:33N 24°25' E 118°17'7 7.3
2015-Jul-23 01:33N 24°32' E 118°13'8 7.7
2015-Jul-23 00:32N 24°25' E 118°17'0 0.0
2015-Jul-22 23:33N 24°25' E 118°17'0 0.0
2015-Jul-22 22:33N 24°25' E 118°17'0 0.0
2015-Jul-22 21:33N 24°25' E 118°17'0 0.0
2015-Jul-22 20:33N 24°25' E 118°17'0 0.0
2015-Jul-22 19:33N 24°25' E 118°17'0 0.0
2015-Jul-22 18:30N 24°25' E 118°17'0 0.0
2015-Jul-22 17:32N 24°25' E 118°17'0 0.0
2015-Jul-22 16:33N 24°25' E 118°17'0 0.0
2015-Jul-22 15:33N 24°25' E 118°17'0 0.0
2015-Jul-22 14:33N 24°25' E 118°17'0 0.0
2015-Jul-22 10:33N 24°25' E 118°17'9 8.8
2015-Jul-22 09:33N 24°32' E 118°11'9 8.6
2015-Jul-22 08:30N 24°25' E 118°17'0 0.3
2015-Jul-22 07:31N 24°25' E 118°18'0 0.0
2015-Jul-22 04:33N 24°25' E 118°18'7 7.4
2015-Jul-22 03:33N 24°31' E 118°13'1 0.7
2015-Jul-22 02:34N 24°32' E 118°13'8 7.9
2015-Jul-22 01:33N 24°25' E 118°17'0 0.1
2015-Jul-22 00:33N 24°25' E 118°17'0 0.0
2015-Jul-21 10:27N 24°25' E 118°17'0 0.0
2015-Jul-21 09:32N 24°25' E 118°17'9 9.2
2015-Jul-21 08:33N 24°32' E 118°11'9 8.7
2015-Jul-21 07:32N 24°25' E 118°17'0 0.2
2015-Jul-21 06:23N 24°25' E 118°17'0 0.1
2015-Jul-21 05:33N 24°25' E 118°17'0 0.0
2015-Jul-21 04:29N 24°25' E 118°17'0 0.0
2015-Jul-21 03:32N 24°25' E 118°17'0 0.0
2015-Jul-21 02:33N 24°25' E 118°17'2 1.8
2015-Jul-21 01:31N 24°27' E 118°17'7 7.2
2015-Jul-21 00:33N 24°32' E 118°12'8 8.3
2015-Jul-20 23:32N 24°25' E 118°17'0 0.0
2015-Jul-20 22:18N 24°25' E 118°17'0 0.0
2015-Jul-20 21:33N 24°25' E 118°17'0 0.0
2015-Jul-20 20:31N 24°25' E 118°17'0 0.0
2015-Jul-20 19:28N 24°25' E 118°17'0 0.0
2015-Jul-20 18:29N 24°25' E 118°17'  

Dump ship's entire track history